ENAL/AES METAR and TAF weather

Enter ICAO airport designator
Station Type Date Time Source
ENAL METAR 2020/03/28 21:20 UTC NOAA

ENAL 282120Z AUTO 36017KT 9999 FEW035/// SCT057/// BKN076/// M00/M03 Q1039


Station Type Date Time Source
ENAL Decoded METAR 2020/03/28 21:20 UTC NOAA

Alesund / Vigra, Norway (ENAL) 62-34N 006-07E 22M
Mar 28, 2020 - 05:20 PM EDT / 2020.03.28 2120 UTC
Wind: from the N (360 degrees) at 20 MPH (17 KT):0
Visibility: greater than 7 mile(s):0
Sky conditions: mostly cloudy
Temperature: 32 F (0 C)
Windchill: 19 F (-7 C):1
Dew Point: 26 F (-3 C)
Relative Humidity: 80%
Pressure (altimeter): 30.68 in. Hg (1039 hPa)
ob: ENAL 282120Z AUTO 36017KT 9999 FEW035/// SCT057/// BKN076/// M00/M03 Q1039
cycle: 21

Station Type Date Time Source
ENAL TAF UTC NOAA

Error!

Example: see airport list